sensor_id;sensor_type;location;lat;lon;timestamp;pressure;altitude;pressure_sealevel;temperature;humidity
60715;BME280;46564;53.096;8.246;2023-02-28T00:00:53;103011.13;;;1.91;nan
60715;BME280;46564;53.096;8.246;2023-02-28T00:05:55;103008.03;;;1.96;nan
60715;BME280;46564;53.096;8.246;2023-02-28T00:11:04;103009.06;;;1.98;nan
60715;BME280;46564;53.096;8.246;2023-02-28T00:16:11;103004.66;;;1.97;nan
60715;BME280;46564;53.096;8.246;2023-02-28T00:21:16;103014.72;;;1.93;nan
60715;BME280;46564;53.096;8.246;2023-02-28T00:26:17;103005.31;;;1.94;nan
60715;BME280;46564;53.096;8.246;2023-02-28T00:31:22;103011.53;;;1.96;nan
60715;BME280;46564;53.096;8.246;2023-02-28T00:36:23;103017.31;;;1.93;nan
60715;BME280;46564;53.096;8.246;2023-02-28T00:41:25;103009.31;;;1.90;nan
60715;BME280;46564;53.096;8.246;2023-02-28T00:46:27;103011.13;;;1.91;nan
60715;BME280;46564;53.096;8.246;2023-02-28T00:51:28;103012.00;;;1.92;nan
60715;BME280;46564;53.096;8.246;2023-02-28T00:56:31;103018.22;;;1.84;nan
60715;BME280;46564;53.096;8.246;2023-02-28T01:01:33;103020.13;;;1.76;nan
60715;BME280;46564;53.096;8.246;2023-02-28T01:06:35;103025.81;;;1.82;nan
60715;BME280;46564;53.096;8.246;2023-02-28T01:11:37;103032.16;;;1.86;nan
60715;BME280;46564;53.096;8.246;2023-02-28T01:16:40;103035.66;;;1.86;nan
60715;BME280;46564;53.096;8.246;2023-02-28T01:21:42;103017.84;;;1.89;nan
60715;BME280;46564;53.096;8.246;2023-02-28T01:26:43;103018.06;;;1.82;nan
60715;BME280;46564;53.096;8.246;2023-02-28T01:31:45;103018.22;;;1.84;nan
60715;BME280;46564;53.096;8.246;2023-02-28T01:36:47;103027.88;;;1.76;nan
60715;BME280;46564;53.096;8.246;2023-02-28T01:41:48;103025.56;;;1.79;nan
60715;BME280;46564;53.096;8.246;2023-02-28T01:46:50;103025.28;;;1.76;nan
60715;BME280;46564;53.096;8.246;2023-02-28T01:51:54;103020.59;;;1.72;nan
60715;BME280;46564;53.096;8.246;2023-02-28T01:57:05;103007.47;;;1.79;nan
60715;BME280;46564;53.096;8.246;2023-02-28T02:02:07;103018.22;;;1.84;nan
60715;BME280;46564;53.096;8.246;2023-02-28T02:07:09;103010.94;;;1.80;nan
60715;BME280;46564;53.096;8.246;2023-02-28T02:17:34;103003.53;;;1.64;nan
60715;BME280;46564;53.096;8.246;2023-02-28T02:22:49;103006.34;;;1.56;nan
60715;BME280;46564;53.096;8.246;2023-02-28T02:33:28;103002.41;;;1.51;nan
60715;BME280;46564;53.096;8.246;2023-02-28T02:38:36;103001.25;;;1.48;nan
60715;BME280;46564;53.096;8.246;2023-02-28T02:43:50;103001.88;;;1.45;nan
60715;BME280;46564;53.096;8.246;2023-02-28T02:48:54;103002.22;;;1.39;nan
60715;BME280;46564;53.096;8.246;2023-02-28T02:54:02;103011.72;;;1.30;nan
60715;BME280;46564;53.096;8.246;2023-02-28T02:59:09;103004.69;;;1.19;nan
60715;BME280;46564;53.096;8.246;2023-02-28T03:04:19;103007.75;;;1.15;nan
60715;BME280;46564;53.096;8.246;2023-02-28T03:09:25;102991.81;;;1.19;nan
60715;BME280;46564;53.096;8.246;2023-02-28T03:25:09;102996.03;;;1.18;nan
60715;BME280;46564;53.096;8.246;2023-02-28T03:30:23;102999.41;;;1.17;nan
60715;BME280;46564;53.096;8.246;2023-02-28T03:35:31;103004.63;;;1.09;nan
60715;BME280;46564;53.096;8.246;2023-02-28T03:40:35;103009.78;;;1.09;nan
60715;BME280;46564;53.096;8.246;2023-02-28T03:45:39;103010.97;;;1.12;nan
60715;BME280;46564;53.096;8.246;2023-02-28T03:50:45;103016.78;;;1.10;nan
60715;BME280;46564;53.096;8.246;2023-02-28T03:55:53;103013.41;;;1.11;nan
60715;BME280;46564;53.096;8.246;2023-02-28T04:01:21;103010.06;;;1.12;nan
60715;BME280;46564;53.096;8.246;2023-02-28T04:06:25;103014.41;;;1.02;nan
60715;BME280;46564;53.096;8.246;2023-02-28T04:11:51;103007.13;;;0.98;nan
60715;BME280;46564;53.096;8.246;2023-02-28T04:16:53;103018.22;;;0.97;nan
60715;BME280;46564;53.096;8.246;2023-02-28T04:21:55;103020.03;;;0.98;nan
60715;BME280;46564;53.096;8.246;2023-02-28T04:26:58;103030.81;;;0.94;nan
60715;BME280;46564;53.096;8.246;2023-02-28T04:32:00;103025.53;;;0.93;nan
60715;BME280;46564;53.096;8.246;2023-02-28T04:37:03;103029.50;;;0.89;nan
60715;BME280;46564;53.096;8.246;2023-02-28T04:42:14;103019.63;;;0.94;nan
60715;BME280;46564;53.096;8.246;2023-02-28T04:47:16;103023.50;;;0.99;nan
60715;BME280;46564;53.096;8.246;2023-02-28T04:52:18;103028.53;;;0.97;nan
60715;BME280;46564;53.096;8.246;2023-02-28T04:57:19;103028.09;;;0.93;nan
60715;BME280;46564;53.096;8.246;2023-02-28T05:02:21;103029.22;;;0.86;nan
60715;BME280;46564;53.096;8.246;2023-02-28T05:07:25;103030.59;;;0.82;nan
60715;BME280;46564;53.096;8.246;2023-02-28T05:12:27;103026.69;;;0.77;nan
60715;BME280;46564;53.096;8.246;2023-02-28T05:17:28;103025.16;;;0.79;nan
60715;BME280;46564;53.096;8.246;2023-02-28T05:22:30;103034.75;;;0.72;nan
60715;BME280;46564;53.096;8.246;2023-02-28T05:27:32;103036.44;;;0.71;nan
60715;BME280;46564;53.096;8.246;2023-02-28T05:32:34;103035.38;;;0.69;nan
60715;BME280;46564;53.096;8.246;2023-02-28T05:37:36;103048.28;;;0.69;nan
60715;BME280;46564;53.096;8.246;2023-02-28T05:42:38;103044.66;;;0.67;nan
60715;BME280;46564;53.096;8.246;2023-02-28T05:47:40;103036.81;;;0.57;nan
60715;BME280;46564;53.096;8.246;2023-02-28T05:52:42;103030.16;;;0.59;nan
60715;BME280;46564;53.096;8.246;2023-02-28T05:57:44;103034.56;;;0.51;nan
60715;BME280;46564;53.096;8.246;2023-02-28T06:02:46;103041.75;;;0.36;nan
60715;BME280;46564;53.096;8.246;2023-02-28T07:33:27;103113.31;;;1.31;nan
60715;BME280;46564;53.096;8.246;2023-02-28T07:38:28;103115.25;;;1.33;nan
60715;BME280;46564;53.096;8.246;2023-02-28T07:43:31;103117.78;;;1.42;nan
60715;BME280;46564;53.096;8.246;2023-02-28T07:48:32;103116.94;;;2.19;nan
60715;BME280;46564;53.096;8.246;2023-02-28T07:53:34;103116.94;;;2.19;nan
60715;BME280;46564;53.096;8.246;2023-02-28T07:58:36;103110.59;;;6.40;nan
60715;BME280;46564;53.096;8.246;2023-02-28T08:03:38;103110.59;;;6.40;nan
60715;BME280;46564;53.096;8.246;2023-02-28T08:08:40;57128.34;;;-147.53;100.00
60715;BME280;46564;53.096;8.246;2023-02-28T08:13:42;103110.59;;;6.40;nan
60715;BME280;46564;53.096;8.246;2023-02-28T08:18:45;103122.84;;;8.49;nan
60715;BME280;46564;53.096;8.246;2023-02-28T08:23:48;103118.56;;;8.09;nan
60715;BME280;46564;53.096;8.246;2023-02-28T08:28:50;103127.38;;;8.25;nan
60715;BME280;46564;53.096;8.246;2023-02-28T08:33:51;103117.03;;;8.00;nan
60715;BME280;46564;53.096;8.246;2023-02-28T08:38:54;103126.88;;;7.90;nan
60715;BME280;46564;53.096;8.246;2023-02-28T08:43:56;103129.84;;;7.43;nan
60715;BME280;46564;53.096;8.246;2023-02-28T08:48:57;103134.03;;;6.77;nan
60715;BME280;46564;53.096;8.246;2023-02-28T08:54:01;103129.59;;;6.51;nan
60715;BME280;46564;53.096;8.246;2023-02-28T08:59:03;103140.97;;;6.28;nan
60715;BME280;46564;53.096;8.246;2023-02-28T09:04:05;103134.53;;;6.60;nan
60715;BME280;46564;53.096;8.246;2023-02-28T09:09:08;103132.81;;;6.97;nan
60715;BME280;46564;53.096;8.246;2023-02-28T09:14:11;103132.81;;;7.22;nan
60715;BME280;46564;53.096;8.246;2023-02-28T09:19:13;103137.81;;;6.94;nan
60715;BME280;46564;53.096;8.246;2023-02-28T09:24:14;103132.56;;;7.06;nan
60715;BME280;46564;53.096;8.246;2023-02-28T09:29:16;103132.66;;;7.33;nan
60715;BME280;46564;53.096;8.246;2023-02-28T09:34:19;103132.19;;;7.13;nan
60715;BME280;46564;53.096;8.246;2023-02-28T09:39:22;103125.03;;;7.36;nan
60715;BME280;46564;53.096;8.246;2023-02-28T09:44:33;103128.19;;;7.57;nan
60715;BME280;46564;53.096;8.246;2023-02-28T09:49:45;103126.69;;;7.74;nan
60715;BME280;46564;53.096;8.246;2023-02-28T09:54:48;103131.09;;;7.61;nan
60715;BME280;46564;53.096;8.246;2023-02-28T10:00:10;103143.31;;;7.63;nan
60715;BME280;46564;53.096;8.246;2023-02-28T10:05:25;103151.47;;;7.94;nan
60715;BME280;46564;53.096;8.246;2023-02-28T10:10:29;103150.66;;;8.35;nan
60715;BME280;46564;53.096;8.246;2023-02-28T10:15:34;103149.69;;;9.18;nan
60715;BME280;46564;53.096;8.246;2023-02-28T10:20:39;103148.63;;;9.14;nan
60715;BME280;46564;53.096;8.246;2023-02-28T10:25:45;103152.19;;;8.05;nan
60715;BME280;46564;53.096;8.246;2023-02-28T10:30:51;103145.16;;;8.17;nan
60715;BME280;46564;53.096;8.246;2023-02-28T10:35:53;103145.16;;;8.17;nan
60715;BME280;46564;53.096;8.246;2023-02-28T10:41:07;103152.47;;;7.83;nan
60715;BME280;46564;53.096;8.246;2023-02-28T10:51:12;103145.00;;;7.49;nan
60715;BME280;46564;53.096;8.246;2023-02-28T10:56:17;103145.22;;;7.65;nan
60715;BME280;46564;53.096;8.246;2023-02-28T11:01:27;103139.03;;;7.90;nan
60715;BME280;46564;53.096;8.246;2023-02-28T11:06:37;103142.31;;;7.60;nan
60715;BME280;46564;53.096;8.246;2023-02-28T11:11:43;103131.78;;;7.59;nan
60715;BME280;46564;53.096;8.246;2023-02-28T11:16:45;103139.00;;;7.63;nan
60715;BME280;46564;53.096;8.246;2023-02-28T11:21:55;103138.00;;;7.74;nan
60715;BME280;46564;53.096;8.246;2023-02-28T11:26:58;103134.50;;;7.87;nan
60715;BME280;46564;53.096;8.246;2023-02-28T11:32:04;103136.31;;;7.61;nan
60715;BME280;46564;53.096;8.246;2023-02-28T11:37:16;103139.91;;;7.77;nan
60715;BME280;46564;53.096;8.246;2023-02-28T11:48:00;103124.84;;;7.59;nan
60715;BME280;46564;53.096;8.246;2023-02-28T11:53:02;103119.75;;;7.74;nan
60715;BME280;46564;53.096;8.246;2023-02-28T12:08:55;103094.44;;;8.13;nan
60715;BME280;46564;53.096;8.246;2023-02-28T12:29:49;103068.91;;;7.54;nan
60715;BME280;46564;53.096;8.246;2023-02-28T12:34:57;103070.19;;;7.88;nan
60715;BME280;46564;53.096;8.246;2023-02-28T12:40:09;103056.66;;;7.93;nan
60715;BME280;46564;53.096;8.246;2023-02-28T12:45:22;103053.47;;;7.71;nan
60715;BME280;46564;53.096;8.246;2023-02-28T12:50:25;103039.44;;;7.69;nan
60715;BME280;46564;53.096;8.246;2023-02-28T12:55:40;103029.84;;;7.96;nan
60715;BME280;46564;53.096;8.246;2023-02-28T13:06:22;103021.66;;;7.50;nan
60715;BME280;46564;53.096;8.246;2023-02-28T13:11:38;103018.75;;;7.72;nan
60715;BME280;46564;53.096;8.246;2023-02-28T13:17:10;103024.56;;;7.81;nan
60715;BME280;46564;53.096;8.246;2023-02-28T13:22:19;103022.16;;;7.71;nan
60715;BME280;46564;53.096;8.246;2023-02-28T13:27:41;103015.03;;;7.55;nan
60715;BME280;46564;53.096;8.246;2023-02-28T13:32:44;103018.13;;;7.89;nan
60715;BME280;46564;53.096;8.246;2023-02-28T13:37:47;103017.13;;;7.74;nan
60715;BME280;46564;53.096;8.246;2023-02-28T13:42:51;103020.44;;;7.58;nan
60715;BME280;46564;53.096;8.246;2023-02-28T13:47:58;103008.53;;;7.61;nan
60715;BME280;46564;53.096;8.246;2023-02-28T13:58:40;103005.91;;;7.08;nan
60715;BME280;46564;53.096;8.246;2023-02-28T14:09:27;103006.13;;;7.24;nan
60715;BME280;46564;53.096;8.246;2023-02-28T14:19:38;102986.69;;;6.67;nan
60715;BME280;46564;53.096;8.246;2023-02-28T14:25:05;102982.38;;;6.68;nan
60715;BME280;46564;53.096;8.246;2023-02-28T14:36:14;102989.03;;;6.51;nan
60715;BME280;46564;53.096;8.246;2023-02-28T14:41:23;102992.03;;;6.32;nan
60715;BME280;46564;53.096;8.246;2023-02-28T14:46:39;102988.53;;;6.31;nan
60715;BME280;46564;53.096;8.246;2023-02-28T14:51:48;102994.53;;;6.30;nan
60715;BME280;46564;53.096;8.246;2023-02-28T14:56:51;102997.22;;;6.18;nan
60715;BME280;46564;53.096;8.246;2023-02-28T15:02:16;102999.03;;;6.08;nan
60715;BME280;46564;53.096;8.246;2023-02-28T15:07:18;103001.41;;;5.93;nan
60715;BME280;46564;53.096;8.246;2023-02-28T15:12:20;103003.69;;;6.00;nan
60715;BME280;46564;53.096;8.246;2023-02-28T15:17:23;103002.91;;;6.01;nan
60715;BME280;46564;53.096;8.246;2023-02-28T15:22:33;103005.06;;;5.83;nan
60715;BME280;46564;53.096;8.246;2023-02-28T15:27:43;102998.69;;;5.91;nan
60715;BME280;46564;53.096;8.246;2023-02-28T15:38:26;102987.41;;;5.91;nan
60715;BME280;46564;53.096;8.246;2023-02-28T15:43:33;102996.59;;;5.86;nan
60715;BME280;46564;53.096;8.246;2023-02-28T15:48:51;102993.16;;;5.87;nan
60715;BME280;46564;53.096;8.246;2023-02-28T15:53:56;103003.25;;;5.82;nan
60715;BME280;46564;53.096;8.246;2023-02-28T15:59:01;102995.69;;;5.73;nan
60715;BME280;46564;53.096;8.246;2023-02-28T16:04:06;103003.47;;;5.73;nan
60715;BME280;46564;53.096;8.246;2023-02-28T16:09:11;102992.63;;;5.67;nan
60715;BME280;46564;53.096;8.246;2023-02-28T16:14:28;102993.56;;;5.56;nan
60715;BME280;46564;53.096;8.246;2023-02-28T16:25:38;103000.59;;;5.33;nan
60715;BME280;46564;53.096;8.246;2023-02-28T16:30:41;102998.09;;;5.23;nan
60715;BME280;46564;53.096;8.246;2023-02-28T16:35:43;102998.09;;;5.23;nan
60715;BME280;46564;53.096;8.246;2023-02-28T16:40:53;103001.63;;;4.89;nan
60715;BME280;46564;53.096;8.246;2023-02-28T16:46:08;102997.41;;;4.68;nan
60715;BME280;46564;53.096;8.246;2023-02-28T16:51:26;103001.78;;;4.57;nan
60715;BME280;46564;53.096;8.246;2023-02-28T16:56:29;103007.81;;;4.46;nan
60715;BME280;46564;53.096;8.246;2023-02-28T17:01:32;103008.00;;;4.25;nan
60715;BME280;46564;53.096;8.246;2023-02-28T17:06:45;103007.81;;;4.12;nan
60715;BME280;46564;53.096;8.246;2023-02-28T17:12:16;103011.63;;;3.95;nan
60715;BME280;46564;53.096;8.246;2023-02-28T17:17:41;103013.03;;;3.69;nan
60715;BME280;46564;53.096;8.246;2023-02-28T17:22:50;103023.25;;;3.35;nan
60715;BME280;46564;53.096;8.246;2023-02-28T17:27:55;103015.91;;;3.09;nan
60715;BME280;46564;53.096;8.246;2023-02-28T17:32:57;103029.41;;;2.84;nan
60715;BME280;46564;53.096;8.246;2023-02-28T17:37:59;103029.38;;;2.63;nan
60715;BME280;46564;53.096;8.246;2023-02-28T17:43:02;103023.28;;;2.42;nan
60715;BME280;46564;53.096;8.246;2023-02-28T17:48:04;103022.84;;;2.27;nan
60715;BME280;46564;53.096;8.246;2023-02-28T17:53:06;103027.97;;;2.07;nan
60715;BME280;46564;53.096;8.246;2023-02-28T17:58:10;103029.84;;;1.89;nan
60715;BME280;46564;53.096;8.246;2023-02-28T18:03:13;103028.34;;;1.72;nan
60715;BME280;46564;53.096;8.246;2023-02-28T18:08:15;103036.25;;;1.54;nan
60715;BME280;46564;53.096;8.246;2023-02-28T18:13:17;103044.81;;;1.34;nan
60715;BME280;46564;53.096;8.246;2023-02-28T18:18:19;103047.03;;;1.21;nan
60715;BME280;46564;53.096;8.246;2023-02-28T18:23:49;103043.06;;;1.05;nan
60715;BME280;46564;53.096;8.246;2023-02-28T18:28:53;103045.00;;;0.89;nan
60715;BME280;46564;53.096;8.246;2023-02-28T18:33:55;103038.84;;;0.78;nan
60715;BME280;46564;53.096;8.246;2023-02-28T18:38:56;103046.66;;;0.61;nan
60715;BME280;46564;53.096;8.246;2023-02-28T18:44:00;103048.38;;;0.51;nan
60715;BME280;46564;53.096;8.246;2023-02-28T18:49:18;103039.97;;;0.35;nan
60715;BME280;46564;53.096;8.246;2023-02-28T18:54:21;103041.25;;;0.21;nan
60715;BME280;46564;53.096;8.246;2023-02-28T18:59:40;103032.19;;;0.07;nan
60715;BME280;46564;53.096;8.246;2023-02-28T19:04:42;103034.94;;;0.00;nan
60715;BME280;46564;53.096;8.246;2023-02-28T19:09:47;103035.56;;;-0.11;nan
60715;BME280;46564;53.096;8.246;2023-02-28T19:14:48;103033.47;;;-0.24;nan
60715;BME280;46564;53.096;8.246;2023-02-28T19:19:50;103033.81;;;-0.39;nan
60715;BME280;46564;53.096;8.246;2023-02-28T19:24:52;103035.78;;;-0.54;nan
60715;BME280;46564;53.096;8.246;2023-02-28T19:29:54;103032.03;;;-0.66;nan
60715;BME280;46564;53.096;8.246;2023-02-28T19:34:56;103032.03;;;-0.75;nan
60715;BME280;46564;53.096;8.246;2023-02-28T19:39:57;103026.13;;;-0.82;nan
60715;BME280;46564;53.096;8.246;2023-02-28T19:44:59;103028.69;;;-0.91;nan
